Time;durP1;ratioP1;P1;durP2;ratioP2;P2;SDS_P1;SDS_P2;PMS_P1;PMS_P2;Temp;Humidity;BMP_temperature;BMP_pressure;BME280_temperature;BME280_humidity;BME280_pressure;Samples;Min_cycle;Max_cycle;Signal;HPM_P1;HPM_P2
2022/06/26 00:01:13;;;;;;;16.00;13.90;;;18.20;99.90;;;;;;5034713;28;20195;-70
2022/06/26 00:03:39;;;;;;;17.43;14.40;;;18.20;99.90;;;;;;5041396;28;20175;-71
2022/06/26 00:06:04;;;;;;;18.43;15.30;;;18.10;99.90;;;;;;5054305;28;20556;-71
2022/06/26 00:08:30;;;;;;;17.70;16.00;;;18.10;99.90;;;;;;5048852;28;20211;-71
2022/06/26 00:10:55;;;;;;;19.00;15.90;;;18.10;99.90;;;;;;5034522;28;20411;-71
2022/06/26 00:13:21;;;;;;;20.57;15.37;;;18.10;99.90;;;;;;5040111;28;20648;-71
2022/06/26 00:15:47;;;;;;;16.87;15.07;;;18.20;99.90;;;;;;5054323;28;20174;-71
2022/06/26 00:18:14;;;;;;;17.37;15.63;;;18.20;99.90;;;;;;5048233;28;20183;-71
2022/06/26 00:20:39;;;;;;;17.13;15.43;;;18.10;99.90;;;;;;5034094;28;20590;-71
2022/06/26 00:23:05;;;;;;;16.57;15.17;;;18.20;99.90;;;;;;5037862;28;20267;-71
2022/06/26 00:25:31;;;;;;;17.00;15.30;;;18.10;99.90;;;;;;5053925;28;20207;-71
2022/06/26 00:27:57;;;;;;;18.33;16.17;;;18.10;99.90;;;;;;5035709;28;20205;-71
2022/06/26 00:30:22;;;;;;;17.30;14.93;;;18.10;99.90;;;;;;5033981;28;20246;-70
2022/06/26 00:32:48;;;;;;;16.47;14.87;;;18.10;99.90;;;;;;5048792;28;20179;-70
2022/06/26 00:35:14;;;;;;;19.43;15.40;;;18.00;99.90;;;;;;5052362;28;20553;-70
2022/06/26 00:37:40;;;;;;;17.03;15.33;;;18.00;99.90;;;;;;5039246;28;20175;-70
2022/06/26 00:40:07;;;;;;;18.00;16.10;;;18.00;99.90;;;;;;5032610;28;20180;-70
2022/06/26 00:42:32;;;;;;;18.87;15.77;;;17.90;99.90;;;;;;5044993;28;20218;-69
2022/06/26 00:44:58;;;;;;;17.10;15.30;;;17.70;99.90;;;;;;5053457;28;20198;-70
2022/06/26 00:47:24;;;;;;;20.67;16.87;;;17.60;99.90;;;;;;5042907;28;20207;-70
2022/06/26 00:49:50;;;;;;;20.77;16.33;;;17.60;99.90;;;;;;5033715;28;20203;-70
2022/06/26 00:52:17;;;;;;;19.50;16.03;;;17.60;99.90;;;;;;5034762;28;20210;-70
2022/06/26 00:54:43;;;;;;;26.40;18.00;;;17.60;99.90;;;;;;5033454;28;20217;-69
2022/06/26 00:57:09;;;;;;;20.00;18.00;;;17.60;99.90;;;;;;5040776;28;20214;-70
2022/06/26 00:59:36;;;;;;;20.50;17.87;;;17.50;99.90;;;;;;5053704;28;20257;-70
2022/06/26 01:02:02;;;;;;;24.53;18.70;;;17.50;99.90;;;;;;5045992;28;20210;-70
2022/06/26 01:04:27;;;;;;;22.07;19.50;;;17.40;99.90;;;;;;5031859;28;20187;-70
2022/06/26 01:06:54;;;;;;;21.83;19.23;;;17.40;99.90;;;;;;5037109;28;20175;-70
2022/06/26 01:09:20;;;;;;;24.10;19.60;;;17.40;99.90;;;;;;5051957;28;20256;-70
2022/06/26 01:11:46;;;;;;;25.67;20.50;;;17.40;99.90;;;;;;5050711;28;20201;-70
2022/06/26 01:14:12;;;;;;;22.57;18.80;;;17.50;99.90;;;;;;5031817;28;20542;-70
2022/06/26 01:16:40;;;;;;;20.33;18.20;;;17.50;99.90;;;;;;5033496;28;20179;-70
2022/06/26 01:19:07;;;;;;;24.33;19.30;;;17.50;99.90;;;;;;5051702;28;20175;-70
2022/06/26 01:21:33;;;;;;;25.90;18.87;;;17.50;99.90;;;;;;5035898;28;20219;-71
2022/06/26 01:23:59;;;;;;;24.87;19.80;;;17.40;99.90;;;;;;5032890;28;20633;-70
2022/06/26 01:26:25;;;;;;;21.57;18.67;;;17.40;99.90;;;;;;5047947;28;20187;-70
2022/06/26 01:28:52;;;;;;;23.67;19.07;;;17.40;99.90;;;;;;5052863;28;20202;-70
2022/06/26 01:31:19;;;;;;;20.33;17.70;;;17.30;99.90;;;;;;5039043;28;20207;-70
2022/06/26 01:33:48;;;;;;;20.43;17.40;;;17.20;99.90;;;;;;5033750;28;20183;-70
2022/06/26 01:36:14;;;;;;;19.23;17.23;;;17.20;99.90;;;;;;5044902;28;20193;-71
2022/06/26 01:38:40;;;;;;;23.23;18.07;;;17.20;99.90;;;;;;5052786;28;20182;-70
2022/06/26 01:41:06;;;;;;;20.07;17.93;;;17.20;99.90;;;;;;5049892;28;20199;-70
2022/06/26 01:43:34;;;;;;;20.33;18.13;;;17.20;99.90;;;;;;5051205;28;20185;-71
2022/06/26 01:46:00;;;;;;;22.17;17.70;;;17.10;99.90;;;;;;5050918;28;20187;-70
2022/06/26 01:48:27;;;;;;;22.77;18.37;;;17.10;99.90;;;;;;5052510;28;20202;-71
2022/06/26 01:50:55;;;;;;;25.80;19.67;;;17.10;99.90;;;;;;5043572;28;20284;-71
2022/06/26 01:53:21;;;;;;;24.17;17.40;;;17.10;99.90;;;;;;5032342;28;20187;-71
2022/06/26 01:55:47;;;;;;;21.03;17.50;;;17.10;99.90;;;;;;5038083;28;20186;-71
2022/06/26 01:58:13;;;;;;;24.77;21.00;;;17.10;99.90;;;;;;5052351;28;20194;-70
2022/06/26 02:00:41;;;;;;;22.57;20.20;;;17.10;99.90;;;;;;5048016;28;20199;-71
2022/06/26 02:03:08;;;;;;;22.83;20.57;;;17.10;99.90;;;;;;5030612;28;20218;-70
2022/06/26 02:05:34;;;;;;;24.07;21.53;;;17.10;99.90;;;;;;5034563;28;20194;-71
2022/06/26 02:08:00;;;;;;;25.13;21.87;;;17.10;99.90;;;;;;5052161;28;20640;-70
2022/06/26 02:15:57;;;;;;;20.37;18.37;;;17.00;99.90;;;;;;5052461;28;20182;-70
2022/06/26 02:18:23;;;;;;;24.07;20.67;;;17.10;99.90;;;;;;5051210;28;20186;-71
2022/06/26 02:20:49;;;;;;;26.47;21.03;;;17.20;99.90;;;;;;5032007;28;20210;-70
2022/06/26 02:23:15;;;;;;;25.67;22.37;;;17.30;99.90;;;;;;5030578;28;20217;-70
2022/06/26 02:25:41;;;;;;;25.50;19.40;;;17.40;99.90;;;;;;5050421;28;20182;-70
2022/06/26 02:28:07;;;;;;;21.60;18.53;;;17.40;99.90;;;;;;5051766;28;20175;-70
2022/06/26 02:30:33;;;;;;;21.87;19.07;;;17.40;99.90;;;;;;5036623;28;20181;-70
2022/06/26 02:32:59;;;;;;;21.33;19.03;;;17.40;99.90;;;;;;5012079;28;20244;-71
2022/06/26 02:35:26;;;;;;;22.27;18.43;;;17.30;99.90;;;;;;5010544;28;20709;-70
2022/06/26 02:37:52;;;;;;;27.13;19.93;;;17.30;99.90;;;;;;5012449;28;20179;-70
2022/06/26 02:40:20;;;;;;;23.83;19.97;;;17.30;99.90;;;;;;5036430;28;20221;-70
2022/06/26 02:42:46;;;;;;;22.47;19.07;;;17.30;99.90;;;;;;5050391;28;20257;-70
2022/06/26 02:45:12;;;;;;;22.63;19.97;;;17.30;99.90;;;;;;5037786;28;20258;-71
2022/06/26 02:47:38;;;;;;;27.13;21.30;;;17.30;99.90;;;;;;5031737;28;20233;-70
2022/06/26 02:50:05;;;;;;;28.13;22.43;;;17.30;99.90;;;;;;5046317;28;20297;-70
2022/06/26 02:52:31;;;;;;;40.43;21.70;;;17.30;99.90;;;;;;5051492;28;20328;-71
2022/06/26 02:54:57;;;;;;;25.33;22.47;;;17.20;99.90;;;;;;5035881;28;20183;-71
2022/06/26 02:57:23;;;;;;;24.77;21.40;;;17.30;99.90;;;;;;5030260;28;20190;-70
2022/06/26 02:59:48;;;;;;;32.27;24.07;;;17.30;99.90;;;;;;5043536;28;20636;-74
2022/06/26 03:02:14;;;;;;;30.90;24.40;;;17.30;99.90;;;;;;5039885;28;20676;-72
2022/06/26 03:04:40;;;;;;;31.50;23.97;;;17.30;99.90;;;;;;5031564;28;20179;-71
2022/06/26 03:07:06;;;;;;;29.97;25.67;;;17.30;99.90;;;;;;5039767;28;20191;-71
2022/06/26 03:09:31;;;;;;;34.57;23.40;;;17.30;99.90;;;;;;5051884;28;20259;-71
2022/06/26 03:11:57;;;;;;;29.80;22.90;;;17.40;99.90;;;;;;5044803;28;20242;-72
2022/06/26 03:14:23;;;;;;;34.20;23.43;;;17.40;99.90;;;;;;5030283;28;20237;-72
2022/06/26 03:16:48;;;;;;;29.70;22.63;;;17.40;99.90;;;;;;5038881;28;20328;-73
2022/06/26 03:19:14;;;;;;;31.17;21.37;;;17.50;99.90;;;;;;5054723;28;20819;-70
2022/06/26 03:21:39;;;;;;;27.43;19.67;;;17.50;99.90;;;;;;5052428;28;20214;-72
2022/06/26 03:24:05;;;;;;;26.00;20.97;;;17.50;99.90;;;;;;5034794;28;20178;-72
2022/06/26 03:26:33;;;;;;;23.13;19.50;;;17.50;99.90;;;;;;5036984;28;20541;-72
2022/06/26 03:29:00;;;;;;;29.03;20.57;;;17.50;99.90;;;;;;5055634;28;20202;-72
2022/06/26 03:31:26;;;;;;;24.73;22.57;;;17.40;99.90;;;;;;5055085;28;20728;-72
2022/06/26 03:33:53;;;;;;;23.67;21.13;;;17.30;99.90;;;;;;5034198;28;20183;-71
2022/06/26 03:36:18;;;;;;;21.83;19.70;;;17.30;99.90;;;;;;5053549;28;20179;-71
2022/06/26 03:38:44;;;;;;;20.27;18.30;;;17.20;99.90;;;;;;5055349;28;20182;-72
2022/06/26 03:41:11;;;;;;;15.37;13.87;;;17.00;99.90;;;;;;5037307;28;20199;-72
2022/06/26 03:43:37;;;;;;;14.23;12.80;;;16.90;99.90;;;;;;5034008;28;20245;-71
2022/06/26 03:46:03;;;;;;;15.30;13.67;;;16.80;99.90;;;;;;5048671;28;20178;-70
2022/06/26 03:48:30;;;;;;;14.37;12.87;;;16.80;99.90;;;;;;5054050;28;20703;-70
2022/06/26 03:50:55;;;;;;;13.97;12.33;;;16.70;99.90;;;;;;5040385;28;20195;-71
2022/06/26 03:53:21;;;;;;;12.93;11.60;;;16.70;99.90;;;;;;5033545;28;20177;-69
2022/06/26 03:55:47;;;;;;;13.47;12.10;;;16.60;99.90;;;;;;5044911;28;20175;-70
2022/06/26 03:58:12;;;;;;;14.53;13.27;;;16.70;99.90;;;;;;5053383;28;20540;-69
2022/06/26 04:00:39;;;;;;;15.80;14.57;;;16.60;99.90;;;;;;5052977;28;20203;-69
2022/06/26 04:03:06;;;;;;;18.50;16.83;;;16.70;99.90;;;;;;5054372;28;20178;-69
2022/06/26 04:05:37;;;;;;;12.73;11.43;;;16.60;99.90;;;;;;5044442;28;20180;-69
2022/06/26 04:08:04;;;;;;;13.43;12.27;;;16.60;99.90;;;;;;5034604;28;20225;-69
2022/06/26 04:10:29;;;;;;;13.33;12.10;;;16.60;99.90;;;;;;5048023;28;20178;-69
2022/06/26 04:13:00;;;;;;;14.27;12.93;;;16.60;99.90;;;;;;5054473;28;20186;-68
2022/06/26 04:15:29;;;;;;;13.03;11.77;;;16.60;99.90;;;;;;5041488;28;20171;-69
2022/06/26 04:17:55;;;;;;;10.80;9.77;;;16.70;99.90;;;;;;5034370;28;20164;-69
2022/06/26 04:20:21;;;;;;;13.37;12.20;;;16.60;99.90;;;;;;5044329;28;20296;-69
2022/06/26 04:23:04;;;;;;;9.17;8.27;;;16.70;99.90;;;;;;5059318;23;20668;-65
2022/06/26 04:25:31;;;;;;;8.93;8.20;;;16.70;99.90;;;;;;5033842;28;20182;-67
2022/06/26 04:27:57;;;;;;;8.70;8.00;;;16.70;99.90;;;;;;5033456;28;20168;-66
2022/06/26 04:30:23;;;;;;;9.90;8.00;;;16.80;99.90;;;;;;5032841;28;20186;-65
2022/06/26 04:32:50;;;;;;;11.87;8.70;;;16.80;99.90;;;;;;5034087;28;20215;-66
2022/06/26 04:35:15;;;;;;;8.73;8.03;;;16.80;99.90;;;;;;5014215;28;20211;-67
2022/06/26 04:37:42;;;;;;;13.73;8.40;;;16.90;99.90;;;;;;5014353;28;20263;-65
2022/06/26 04:40:10;;;;;;;9.13;8.27;;;17.10;99.90;;;;;;5031562;28;20527;-67
2022/06/26 04:42:36;;;;;;;9.57;7.93;;;17.30;99.90;;;;;;5034007;28;20565;-65
2022/06/26 04:45:01;;;;;;;7.73;7.13;;;17.40;99.90;;;;;;5017106;28;20191;-67
2022/06/26 04:47:27;;;;;;;8.20;7.50;;;17.50;99.90;;;;;;5014081;28;20168;-65
2022/06/26 04:49:53;;;;;;;13.63;8.73;;;17.60;99.90;;;;;;5028246;28;20691;-66
2022/06/26 04:52:18;;;;;;;11.87;7.63;;;17.60;99.90;;;;;;5033642;28;20307;-66
2022/06/26 04:54:44;;;;;;;10.17;7.33;;;17.60;99.90;;;;;;5020368;28;20172;-66
2022/06/26 04:57:11;;;;;;;9.43;8.67;;;17.60;99.90;;;;;;5024186;28;20180;-64
2022/06/26 04:59:37;;;;;;;7.20;6.70;;;17.60;99.90;;;;;;5033702;28;20644;-66
2022/06/26 05:02:04;;;;;;;8.03;7.27;;;17.60;99.90;;;;;;5024243;28;20227;-66
2022/06/26 05:04:30;;;;;;;11.33;7.77;;;17.50;99.90;;;;;;5012267;28;20176;-67
2022/06/26 05:06:55;;;;;;;8.57;7.67;;;17.60;99.90;;;;;;5020992;28;20183;-65
2022/06/26 05:09:22;;;;;;;8.27;7.63;;;17.60;99.90;;;;;;5033449;28;20681;-66
2022/06/26 05:11:49;;;;;;;10.03;7.70;;;17.50;99.90;;;;;;5027310;28;20199;-66
2022/06/26 05:14:15;;;;;;;8.20;7.00;;;17.50;99.90;;;;;;5013230;28;20637;-65
2022/06/26 05:16:41;;;;;;;8.20;7.50;;;17.50;99.90;;;;;;5017695;28;20177;-66
2022/06/26 05:19:06;;;;;;;8.57;7.53;;;17.50;99.90;;;;;;5029830;28;20176;-67
2022/06/26 05:21:32;;;;;;;7.60;7.00;;;17.60;99.90;;;;;;5013275;28;20262;-65
2022/06/26 05:23:58;;;;;;;7.50;6.93;;;17.70;99.90;;;;;;5014234;28;20184;-65
2022/06/26 05:26:25;;;;;;;8.50;7.70;;;17.60;99.90;;;;;;5033145;28;20178;-65
2022/06/26 05:28:50;;;;;;;8.43;7.37;;;17.70;99.90;;;;;;5025025;28;20235;-65
2022/06/26 05:31:16;;;;;;;7.20;6.37;;;17.80;99.90;;;;;;5013080;28;20692;-65
2022/06/26 05:33:42;;;;;;;6.43;5.93;;;17.80;99.90;;;;;;5017828;28;20171;-65
2022/06/26 05:36:08;;;;;;;7.60;7.03;;;17.90;99.90;;;;;;5032966;28;20545;-65
2022/06/26 05:38:37;;;;;;;7.20;6.47;;;17.80;99.90;;;;;;5028750;28;20202;-66
2022/06/26 05:41:03;;;;;;;9.00;6.30;;;17.80;99.90;;;;;;5013161;28;20242;-66
2022/06/26 05:43:29;;;;;;;7.70;6.97;;;17.90;99.90;;;;;;5014401;28;20176;-66
2022/06/26 05:45:55;;;;;;;6.63;6.03;;;18.00;99.90;;;;;;5032812;28;20678;-65
2022/06/26 05:48:20;;;;;;;6.47;5.97;;;17.90;99.90;;;;;;5032179;28;20199;-65
2022/06/26 05:50:46;;;;;;;6.80;6.13;;;17.90;99.90;;;;;;5012939;28;20172;-68
2022/06/26 05:53:12;;;;;;;6.70;6.20;;;17.80;99.90;;;;;;5012661;28;20172;-65
2022/06/26 05:55:38;;;;;;;6.57;5.57;;;17.80;99.90;;;;;;5030705;28;20341;-65
2022/06/26 05:58:05;;;;;;;6.33;5.93;;;17.70;99.90;;;;;;5015877;28;20181;-66
2022/06/26 06:00:31;;;;;;;6.47;5.87;;;17.70;99.90;;;;;;5012327;28;20208;-65
2022/06/26 06:02:57;;;;;;;6.80;5.70;;;17.80;99.90;;;;;;5014874;28;20281;-66
2022/06/26 06:05:23;;;;;;;5.70;5.20;;;17.80;99.90;;;;;;4991423;28;20211;-66
2022/06/26 06:07:49;;;;;;;5.90;5.40;;;17.80;99.90;;;;;;5006694;28;20177;-66
2022/06/26 06:10:15;;;;;;;6.27;5.77;;;17.70;99.90;;;;;;5012553;28;20350;-65
2022/06/26 06:12:40;;;;;;;5.90;5.50;;;17.80;99.90;;;;;;5022079;28;20201;-66
2022/06/26 06:15:07;;;;;;;5.70;5.40;;;18.00;99.90;;;;;;5013219;28;20180;-66
2022/06/26 06:17:35;;;;;;;5.83;5.20;;;18.40;99.90;;;;;;5021515;28;20176;-66
2022/06/26 06:20:03;;;;;;;5.73;5.17;;;18.70;99.90;;;;;;5031928;28;20176;-66
2022/06/26 06:22:29;;;;;;;6.50;6.00;;;19.10;99.90;;;;;;5023275;28;20270;-67
2022/06/26 06:24:55;;;;;;;6.57;5.97;;;19.60;99.90;;;;;;5018487;28;20179;-66
2022/06/26 06:27:21;;;;;;;6.40;5.83;;;20.00;99.90;;;;;;5031772;28;20210;-66
2022/06/26 06:29:47;;;;;;;5.70;5.30;;;20.30;99.90;;;;;;5030219;28;20551;-66
2022/06/26 06:32:12;;;;;;;6.07;5.43;;;20.70;99.90;;;;;;5001060;28;20212;-66
2022/06/26 06:34:38;;;;;;;6.68;6.07;;;20.90;99.90;;;;;;5011675;28;20174;-66
2022/06/26 06:37:03;;;;;;;5.97;5.37;;;21.30;99.90;;;;;;5012019;28;20194;-66
2022/06/26 06:39:29;;;;;;;5.15;4.75;;;21.60;99.90;;;;;;5012248;28;20641;-66
2022/06/26 06:41:55;;;;;;;4.55;4.07;;;21.70;99.90;;;;;;5011971;28;20196;-66
2022/06/26 06:44:21;;;;;;;4.80;4.22;;;21.90;99.90;;;;;;5011574;28;20179;-65
2022/06/26 06:46:46;;;;;;;5.88;4.30;;;22.20;99.90;;;;;;5030652;28;20483;-65
2022/06/26 06:49:12;;;;;;;4.20;3.97;;;22.50;99.90;;;;;;5031403;28;20335;-66
2022/06/26 06:51:37;;;;;;;5.60;4.13;;;22.60;99.90;;;;;;5014042;28;20200;-66
2022/06/26 06:54:03;;;;;;;6.85;4.05;;;23.00;99.90;;;;;;5026608;28;20202;-66
2022/06/26 06:56:28;;;;;;;4.80;4.43;;;23.30;99.90;;;;;;5031664;28;20665;-66
2022/06/26 06:58:54;;;;;;;3.88;3.67;;;23.40;99.90;;;;;;5017879;28;20246;-66
2022/06/26 07:01:20;;;;;;;5.55;4.20;;;23.40;99.90;;;;;;5011656;28;20192;-65
2022/06/26 07:03:45;;;;;;;4.38;4.07;;;23.30;99.90;;;;;;5022937;28;20620;-66
2022/06/26 07:06:11;;;;;;;3.33;3.13;;;23.50;99.90;;;;;;5031650;28;20176;-65
2022/06/26 07:08:36;;;;;;;4.15;3.85;;;23.70;99.90;;;;;;5021168;28;20239;-66
2022/06/26 07:11:02;;;;;;;4.78;4.32;;;23.80;99.90;;;;;;5011534;28;20224;-65
2022/06/26 07:13:27;;;;;;;3.90;3.60;;;23.60;99.90;;;;;;5019043;28;20642;-66
2022/06/26 07:15:53;;;;;;;5.47;4.40;;;23.40;99.90;;;;;;5031347;28;20198;-66
2022/06/26 07:18:19;;;;;;;3.97;3.67;;;23.60;99.90;;;;;;5024592;28;20172;-65
2022/06/26 07:20:44;;;;;;;4.47;4.07;;;23.70;99.90;;;;;;5011537;28;20649;-66
2022/06/26 07:23:10;;;;;;;3.85;3.55;;;24.00;99.90;;;;;;5015683;28;20186;-65
2022/06/26 07:25:35;;;;;;;3.55;3.30;;;24.50;99.90;;;;;;5030732;28;20645;-65
2022/06/26 07:28:01;;;;;;;4.03;3.63;;;25.00;99.90;;;;;;5027830;28;20272;-66
2022/06/26 07:30:27;;;;;;;3.78;3.15;;;25.30;99.90;;;;;;5011531;28;20168;-65
2022/06/26 07:32:52;;;;;;;3.55;3.35;;;25.90;99.90;;;;;;5012260;28;20188;-67
2022/06/26 07:35:18;;;;;;;4.00;3.70;;;26.30;99.90;;;;;;5030668;28;20258;-66
2022/06/26 07:37:46;;;;;;;4.10;3.78;;;26.40;99.90;;;;;;5031124;28;20195;-66
2022/06/26 07:40:12;;;;;;;4.10;3.72;;;26.10;99.90;;;;;;5011347;28;20184;-66
2022/06/26 07:42:37;;;;;;;4.47;4.07;;;25.70;99.90;;;;;;5011174;28;20192;-65
2022/06/26 07:45:03;;;;;;;3.97;3.70;;;25.60;99.90;;;;;;5022528;28;20187;-66
2022/06/26 07:47:29;;;;;;;3.75;3.55;;;25.90;99.90;;;;;;5011398;28;20177;-66
2022/06/26 07:49:55;;;;;;;3.25;3.03;;;26.20;99.90;;;;;;5027065;28;20218;-65
2022/06/26 07:52:20;;;;;;;4.38;3.35;;;26.80;99.90;;;;;;5016758;28;20231;-66
2022/06/26 07:54:46;;;;;;;3.70;3.40;;;26.80;99.90;;;;;;5010865;28;20180;-63
2022/06/26 07:57:11;;;;;;;3.05;2.88;;;26.40;99.90;;;;;;5005297;28;20738;-66
2022/06/26 07:59:37;;;;;;;3.85;3.55;;;25.70;99.90;;;;;;5019698;28;20177;-65
2022/06/26 08:02:03;;;;;;;4.25;3.22;;;25.20;99.90;;;;;;5010652;28;20200;-65
2022/06/26 08:04:28;;;;;;;3.85;3.55;;;24.20;99.90;;;;;;5012599;28;20187;-65
2022/06/26 08:06:54;;;;;;;4.00;3.70;;;23.70;99.90;;;;;;5029123;28;20191;-63
2022/06/26 08:09:20;;;;;;;6.72;6.28;;;23.20;99.90;;;;;;5034203;28;20675;-65
2022/06/26 08:11:45;;;;;;;4.35;4.05;;;23.00;99.90;;;;;;5019756;28;20704;-65
2022/06/26 08:14:11;;;;;;;3.63;3.33;;;23.20;99.90;;;;;;5014104;28;20197;-65
2022/06/26 08:16:36;;;;;;;3.60;3.22;;;23.80;99.90;;;;;;5027017;28;20183;-64
2022/06/26 08:19:02;;;;;;;3.45;3.15;;;24.20;99.90;;;;;;5031431;28;20439;-66
2022/06/26 08:24:12;;;;;;;3.40;3.20;;;24.10;99.90;;;;;;5017369;28;20186;-66
2022/06/26 08:26:37;;;;;;;3.50;3.28;;;24.20;99.90;;;;;;5034072;28;20171;-65
2022/06/26 08:29:03;;;;;;;4.07;3.70;;;24.60;99.90;;;;;;5029221;28;20282;-65
2022/06/26 08:31:29;;;;;;;3.60;3.40;;;24.60;99.90;;;;;;5014020;28;20283;-65
2022/06/26 08:33:55;;;;;;;3.67;3.38;;;24.40;99.90;;;;;;5013975;28;20186;-65
2022/06/26 08:36:20;;;;;;;3.95;3.65;;;24.10;99.90;;;;;;5013985;28;20172;-65
2022/06/26 08:38:46;;;;;;;4.32;4.13;;;23.60;99.90;;;;;;5013997;28;20172;-64
2022/06/26 08:41:12;;;;;;;4.22;4.03;;;23.10;99.90;;;;;;5031946;28;20659;-65
2022/06/26 08:43:41;;;;;;;3.95;3.65;;;22.90;99.90;;;;;;5033563;28;20171;-65
2022/06/26 08:46:07;;;;;;;6.78;3.72;;;23.00;99.90;;;;;;5030497;28;20186;-66
2022/06/26 08:48:43;;;;;;;3.83;3.53;;;23.30;99.90;;;;;;5033666;28;20196;-65
2022/06/26 08:51:10;;;;;;;3.50;3.30;;;23.50;99.90;;;;;;5016215;28;20282;-65
2022/06/26 08:53:36;;;;;;;3.78;3.58;;;23.70;99.90;;;;;;5013317;28;20187;-65
2022/06/26 08:56:02;;;;;;;4.00;3.70;;;23.90;99.90;;;;;;5029078;28;20175;-64
2022/06/26 08:58:28;;;;;;;4.43;4.13;;;24.00;99.90;;;;;;5033495;28;20183;-66
2022/06/26 09:00:54;;;;;;;3.60;3.40;;;24.30;99.90;;;;;;5019058;28;20272;-65
2022/06/26 09:03:19;;;;;;;3.70;3.50;;;24.80;99.90;;;;;;5011213;28;20717;-66
2022/06/26 09:05:45;;;;;;;3.67;3.38;;;25.60;99.90;;;;;;5013647;28;20263;-66
2022/06/26 09:08:21;;;;;;;3.33;3.13;;;26.70;99.90;;;;;;5013426;28;20234;-67
2022/06/26 09:10:48;;;;;;;3.65;3.40;;;27.30;99.90;;;;;;5024954;28;20627;-65
2022/06/26 09:13:14;;;;;;;3.40;3.20;;;26.90;99.90;;;;;;5020935;28;20225;-65
2022/06/26 09:15:41;;;;;;;3.60;3.38;;;26.30;99.90;;;;;;5033027;28;20176;-64
2022/06/26 09:18:08;;;;;;;3.75;3.22;;;25.80;99.90;;;;;;5027850;28;20225;-65
2022/06/26 09:20:36;;;;;;;3.15;2.92;;;25.40;99.90;;;;;;5013454;28;20226;-66
2022/06/26 09:23:03;;;;;;;3.35;3.05;;;25.80;99.90;;;;;;5016707;28;20203;-66
2022/06/26 09:25:38;;;;;;;3.80;3.50;;;26.60;99.90;;;;;;5032783;28;20167;-66
2022/06/26 09:28:13;;;;;;;3.08;2.88;;;27.70;99.90;;;;;;5029046;28;20164;-66
2022/06/26 09:31:03;;;;;;;3.30;3.10;;;28.80;99.90;;;;;;5013522;28;20374;-62
2022/06/26 09:33:31;;;;;;;3.90;3.70;;;29.40;99.90;;;;;;5019240;28;20202;-66
2022/06/26 09:35:58;;;;;;;3.15;2.95;;;29.50;99.90;;;;;;5016952;28;20172;-66
2022/06/26 09:38:27;;;;;;;3.20;3.00;;;30.10;99.90;;;;;;5018118;28;20180;-63
2022/06/26 09:40:55;;;;;;;3.38;3.17;;;30.60;99.90;;;;;;5028842;28;20258;-64
2022/06/26 09:43:25;;;;;;;3.15;2.95;;;30.60;99.90;;;;;;5016126;28;20171;-65
2022/06/26 09:45:53;;;;;;;3.88;3.58;;;30.60;99.90;;;;;;5015357;28;20176;-65
2022/06/26 09:48:20;;;;;;;4.00;3.60;;;30.80;99.90;;;;;;5032408;28;20166;-65
2022/06/26 09:50:48;;;;;;;3.30;3.10;;;30.10;99.90;;;;;;5030778;28;20175;-65
2022/06/26 09:53:14;;;;;;;3.67;3.38;;;29.70;99.90;;;;;;5012860;28;20566;-64
2022/06/26 09:55:41;;;;;;;3.55;3.35;;;29.40;99.90;;;;;;5012478;28;20660;-65
2022/06/26 09:58:08;;;;;;;3.60;3.40;;;29.20;99.90;;;;;;5032315;28;20251;-64
2022/06/26 10:00:35;;;;;;;3.63;3.42;;;28.90;99.90;;;;;;5032494;28;20652;-65
2022/06/26 10:08:35;;;;;;;6.55;4.40;;;27.30;99.90;;;;;;5031380;28;20249;-65
2022/06/26 10:11:04;;;;;;;4.18;3.88;;;27.30;99.90;;;;;;5012348;28;20204;-65
2022/06/26 10:13:33;;;;;;;4.00;3.70;;;27.10;99.90;;;;;;5012175;28;20168;-65
2022/06/26 10:16:07;;;;;;;3.92;3.60;;;27.40;99.90;;;;;;5031632;28;20233;-65
2022/06/26 10:19:05;;;;;;;5.38;4.88;;;27.70;99.90;;;;;;5032173;28;20174;-64
2022/06/26 10:21:38;;;;;;;4.13;3.72;;;27.80;99.90;;;;;;5023372;22;20178;-68
2022/06/26 10:24:05;;;;;;;5.25;4.32;;;27.30;99.90;;;;;;5051284;28;20200;-67
2022/06/26 10:26:32;;;;;;;4.82;4.15;;;27.00;99.90;;;;;;5051725;28;20171;-65
2022/06/26 10:29:03;;;;;;;3.92;3.63;;;27.10;99.90;;;;;;5051454;28;20206;-67
2022/06/26 10:31:49;;;;;;;3.88;3.58;;;27.20;99.90;;;;;;5050293;28;20253;-66
2022/06/26 10:34:22;;;;;;;4.35;3.95;;;27.30;99.90;;;;;;5049723;28;20222;-66
2022/06/26 10:37:12;;;;;;;4.22;3.92;;;27.60;99.90;;;;;;5025099;28;20552;-66
2022/06/26 10:39:45;;;;;;;3.60;3.35;;;27.90;99.90;;;;;;5011178;28;20544;-66
2022/06/26 10:45:30;;;;;;;4.35;3.60;;;27.70;99.90;;;;;;5020620;28;20687;-66
2022/06/26 10:47:58;;;;;;;3.80;3.53;;;27.50;99.90;;;;;;5031936;28;20245;-67
2022/06/26 10:50:29;;;;;;;3.60;3.40;;;27.20;99.90;;;;;;5041107;28;20206;-68
2022/06/26 10:53:11;;;;;;;4.15;3.85;;;26.80;99.90;;;;;;5050282;28;20551;-66
2022/06/26 10:55:41;;;;;;;4.28;3.88;;;26.60;99.90;;;;;;5038856;28;20615;-66
2022/06/26 10:58:06;;;;;;;4.32;4.03;;;26.10;99.90;;;;;;5031316;28;20241;-66
2022/06/26 11:00:33;;;;;;;3.97;3.53;;;25.70;99.90;;;;;;5040956;28;20582;-67
2022/06/26 11:02:59;;;;;;;3.58;3.38;;;25.50;99.90;;;;;;5045479;28;20298;-66
2022/06/26 11:05:28;;;;;;;4.28;3.85;;;25.40;99.90;;;;;;5030944;28;20246;-66
2022/06/26 11:07:53;;;;;;;4.32;3.92;;;25.20;99.90;;;;;;5034033;28;20170;-66
2022/06/26 11:10:27;;;;;;;4.78;4.47;;;25.10;99.90;;;;;;5051155;28;20216;-65
2022/06/26 11:12:53;;;;;;;5.00;4.50;;;24.80;99.90;;;;;;5047732;28;20234;-67
2022/06/26 11:15:28;;;;;;;4.93;4.60;;;24.30;99.90;;;;;;5030851;28;20179;-66
2022/06/26 11:17:56;;;;;;;4.70;4.28;;;24.30;99.90;;;;;;5033927;28;20652;-66
2022/06/26 11:23:19;;;;;;;4.20;3.90;;;24.30;99.90;;;;;;5031338;28;20618;-66
2022/06/26 11:25:46;;;;;;;4.18;3.88;;;24.50;99.90;;;;;;5031175;28;20187;-65
2022/06/26 11:28:12;;;;;;;3.70;3.50;;;24.50;99.90;;;;;;5032087;28;20198;-65
2022/06/26 11:30:40;;;;;;;4.00;3.80;;;24.40;99.90;;;;;;5031335;28;20176;-64
2022/06/26 11:33:07;;;;;;;3.80;3.50;;;24.40;99.90;;;;;;5032944;28;20300;-65
2022/06/26 11:35:36;;;;;;;4.05;3.85;;;24.00;99.90;;;;;;5050766;28;20171;-65
2022/06/26 11:38:15;;;;;;;4.53;4.22;;;23.50;99.90;;;;;;5052284;28;20640;-65
2022/06/26 11:40:43;;;;;;;5.05;4.72;;;23.10;99.90;;;;;;5033780;28;20270;-65
2022/06/26 11:43:11;;;;;;;7.17;6.50;;;22.60;99.90;;;;;;5036041;28;20187;-65
2022/06/26 11:45:39;;;;;;;6.33;5.93;;;22.30;99.90;;;;;;5054608;28;20257;-64
2022/06/26 11:48:13;;;;;;;9.93;9.43;;;22.10;99.90;;;;;;5054281;28;20803;-66
2022/06/26 11:50:39;;;;;;;5.87;5.57;;;22.00;99.90;;;;;;5034677;28;20645;-64
2022/06/26 11:53:06;;;;;;;6.50;4.77;;;21.80;99.90;;;;;;5034599;28;20676;-65
2022/06/26 11:55:33;;;;;;;6.57;5.87;;;21.50;99.90;;;;;;5053607;28;20175;-65
2022/06/26 11:58:01;;;;;;;5.70;5.20;;;21.20;99.90;;;;;;5038699;28;20216;-65
2022/06/26 12:00:27;;;;;;;8.00;7.47;;;21.20;99.90;;;;;;5034643;28;20175;-66
2022/06/26 12:02:53;;;;;;;14.47;13.57;;;21.30;99.90;;;;;;5047479;28;20693;-66
2022/06/26 12:05:20;;;;;;;5.13;4.83;;;21.50;99.90;;;;;;5044350;28;20187;-65
2022/06/26 12:07:48;;;;;;;5.40;5.07;;;21.50;99.90;;;;;;5033351;28;20182;-65
2022/06/26 12:10:51;;;;;;;7.47;6.97;;;21.30;99.90;;;;;;5041862;28;20249;-66
2022/06/26 12:13:31;;;;;;;5.83;5.37;;;21.20;99.90;;;;;;5037751;28;20214;-65
2022/06/26 12:16:05;;;;;;;5.27;4.90;;;21.40;99.90;;;;;;5033321;28;20198;-66
2022/06/26 12:18:31;;;;;;;6.77;6.37;;;21.30;99.90;;;;;;5041302;28;20179;-66
2022/06/26 12:20:56;;;;;;;9.50;8.90;;;21.30;99.90;;;;;;5033962;28;20183;-66
2022/06/26 12:23:37;;;;;;;5.20;4.90;;;21.30;99.90;;;;;;5042491;28;20210;-66
2022/06/26 12:26:05;;;;;;;7.73;6.40;;;21.30;99.90;;;;;;5054077;28;20166;-66
2022/06/26 12:28:31;;;;;;;5.63;5.23;;;21.10;99.90;;;;;;5044620;28;20644;-67
2022/06/26 12:30:56;;;;;;;6.33;4.43;;;20.90;99.90;;;;;;5034121;28;20182;-68
2022/06/26 12:33:22;;;;;;;5.67;5.07;;;20.70;99.90;;;;;;5039930;28;20187;-67
2022/06/26 12:35:48;;;;;;;4.27;4.03;;;20.40;99.90;;;;;;5054090;28;20636;-67
2022/06/26 12:38:18;;;;;;;5.63;5.10;;;20.10;99.90;;;;;;5048284;28;20172;-67
2022/06/26 12:40:43;;;;;;;5.63;5.23;;;20.00;99.90;;;;;;5034274;28;20167;-67
2022/06/26 12:43:09;;;;;;;6.97;5.83;;;19.80;99.90;;;;;;5036643;28;20538;-67
2022/06/26 12:45:35;;;;;;;6.30;5.90;;;19.60;99.90;;;;;;5053644;28;20181;-68
2022/06/26 12:48:00;;;;;;;5.90;5.37;;;19.60;99.90;;;;;;5050383;28;20266;-67
2022/06/26 12:50:26;;;;;;;5.53;5.23;;;19.70;99.90;;;;;;5052399;28;20199;-67
2022/06/26 12:52:52;;;;;;;5.87;5.53;;;19.60;99.90;;;;;;5053176;28;20550;-67
2022/06/26 12:55:17;;;;;;;5.40;5.00;;;19.40;99.90;;;;;;5033275;28;20258;-67
2022/06/26 12:57:43;;;;;;;6.97;5.20;;;19.30;99.90;;;;;;5033731;28;20171;-67
2022/06/26 13:00:09;;;;;;;6.10;5.60;;;19.40;99.90;;;;;;5052147;28;20526;-66